createdAt,value
2018-04-12T00:02:12.101Z,66.17
2018-04-12T00:07:13.437Z,67.07
2018-04-12T00:12:14.755Z,62.20
2018-04-12T00:17:16.811Z,54.20
2018-04-12T00:22:18.138Z,60.20
2018-04-12T00:27:19.441Z,45.83
2018-04-12T00:32:21.480Z,55.17
2018-04-12T00:37:22.797Z,50.60
2018-04-12T00:42:24.109Z,59.40
2018-04-12T00:47:25.442Z,54.67
2018-04-12T00:52:26.797Z,49.00
2018-04-12T00:57:28.870Z,55.23
2018-04-12T01:02:30.180Z,47.77
2018-04-12T01:07:31.509Z,49.13
2018-04-12T01:12:32.826Z,53.10
2018-04-12T01:17:34.141Z,51.30
2018-04-12T01:22:35.458Z,57.43
2018-04-12T01:27:37.482Z,50.60
2018-04-12T01:32:38.837Z,49.50
2018-04-12T01:37:40.146Z,55.70
2018-04-12T01:42:42.207Z,52.13
2018-04-12T01:47:43.522Z,50.50
2018-04-12T01:52:44.829Z,46.93
2018-04-12T01:57:46.883Z,56.60
2018-04-12T02:02:48.190Z,54.40
2018-04-12T02:07:49.498Z,58.30
2018-04-12T02:12:50.823Z,48.07
2018-04-12T02:17:52.126Z,49.73
2018-04-12T02:22:53.426Z,51.83
2018-04-12T02:27:54.761Z,52.80
2018-04-12T02:32:56.077Z,55.47
2018-04-12T02:37:57.427Z,61.53
2018-04-12T02:42:58.719Z,49.83
2018-04-12T02:48:00.034Z,51.83
2018-04-12T02:53:02.130Z,48.63
2018-04-12T02:58:04.210Z,54.37
2018-04-12T03:03:05.544Z,51.37
2018-04-12T03:08:06.875Z,57.17
2018-04-12T03:13:08.295Z,61.10
2018-04-12T03:18:10.392Z,50.77
2018-04-12T03:23:11.733Z,54.20
2018-04-12T03:28:13.052Z,56.03
2018-04-12T03:33:14.369Z,46.83
2018-04-12T03:38:15.659Z,49.20
2018-04-12T03:43:16.972Z,47.07
2018-04-12T03:48:18.290Z,50.77
2018-04-12T03:53:19.610Z,52.07
2018-04-12T03:58:20.923Z,44.87
2018-04-12T04:03:22.983Z,43.57
2018-04-12T04:08:24.319Z,47.97
2018-04-12T04:13:26.354Z,43.53
2018-04-12T04:18:46.122Z,39.47
2018-04-12T04:23:47.438Z,35.20
2018-04-12T04:28:49.501Z,46.80
2018-04-12T04:33:50.819Z,35.00
2018-04-12T04:38:52.149Z,35.40
2018-04-12T04:43:53.483Z,41.57
2018-04-12T04:48:54.818Z,34.60
2018-04-12T04:53:56.133Z,39.77
2018-04-12T04:58:57.464Z,35.50
2018-04-12T05:03:58.762Z,36.50
2018-04-12T05:09:00.098Z,34.03
2018-04-12T05:14:01.438Z,43.43
2018-04-12T05:19:02.780Z,38.47
2018-04-12T05:24:04.131Z,41.83
2018-04-12T05:29:06.228Z,41.00
2018-04-12T05:34:07.593Z,42.77
2018-04-12T05:39:09.018Z,38.57
2018-04-12T05:44:11.070Z,40.73
2018-04-12T05:49:12.405Z,42.10
2018-04-12T05:54:13.714Z,38.73
2018-04-12T05:59:15.774Z,39.50
2018-04-12T06:04:17.111Z,37.87
2018-04-12T06:09:19.186Z,49.07
2018-04-12T06:14:20.485Z,52.93
2018-04-12T06:19:21.803Z,66.80
2018-04-12T06:24:23.098Z,39.20
2018-04-12T06:29:24.431Z,43.47
2018-04-12T06:34:25.749Z,46.00
2018-04-12T06:39:27.782Z,50.43
2018-04-12T06:44:29.083Z,49.50
2018-04-12T06:49:30.430Z,47.10
2018-04-12T06:54:32.486Z,48.77
2018-04-12T06:59:33.881Z,48.83
2018-04-12T07:04:35.886Z,57.40
2018-04-12T07:09:37.214Z,47.33
2018-04-12T07:14:38.535Z,52.07
2018-04-12T07:19:39.859Z,53.37
2018-04-12T07:24:41.167Z,53.00
2018-04-12T07:29:42.470Z,50.67
2018-04-12T07:34:43.816Z,63.60
2018-04-12T07:39:45.130Z,47.83
2018-04-12T07:44:46.444Z,46.93
2018-04-12T07:49:47.779Z,51.50
2018-04-12T07:54:49.089Z,57.80
2018-04-12T07:59:50.419Z,54.33
2018-04-12T08:04:52.474Z,71.43
2018-04-12T08:09:53.794Z,57.07
2018-04-12T08:14:55.125Z,61.53
2018-04-12T08:19:56.441Z,59.13
2018-04-12T08:24:57.734Z,59.93
2018-04-12T08:29:59.039Z,66.80
2018-04-12T08:35:00.340Z,58.67
2018-04-12T08:40:01.674Z,56.33
2018-04-12T08:45:03.030Z,61.53
2018-04-12T08:50:04.370Z,56.97
2018-04-12T08:55:05.703Z,60.43
2018-04-12T09:00:06.998Z,66.27
2018-04-12T09:05:08.316Z,61.80
2018-04-12T09:10:09.654Z,66.80
2018-04-12T09:15:10.970Z,63.73
2018-04-12T09:20:13.024Z,64.80
2018-04-12T09:25:14.334Z,55.30
2018-04-12T09:30:15.638Z,66.43
2018-04-12T09:35:16.948Z,66.27
2018-04-12T09:40:18.986Z,51.73
2018-04-12T09:45:20.302Z,57.13
2018-04-12T09:50:21.623Z,62.93
2018-04-12T09:55:22.935Z,56.43
2018-04-12T10:00:26.253Z,50.37
2018-04-12T10:05:29.250Z,58.40
2018-04-12T10:10:30.541Z,54.37
2018-04-12T10:15:31.858Z,53.17
2018-04-12T10:20:33.184Z,57.63
2018-04-12T10:25:34.579Z,49.33
2018-04-12T10:30:36.594Z,55.53
2018-04-12T10:35:37.922Z,52.53
2018-04-12T10:40:39.250Z,52.63
2018-04-12T10:45:40.587Z,57.27
2018-04-12T10:50:41.919Z,49.70
2018-04-12T10:55:43.998Z,49.50
2018-04-12T11:00:45.302Z,47.67
2018-04-12T11:05:47.339Z,48.30
2018-04-12T11:10:48.663Z,56.83
2018-04-12T11:15:49.978Z,47.07
2018-04-12T11:20:51.270Z,51.07
2018-04-12T11:25:52.602Z,43.10
2018-04-12T11:30:53.914Z,45.47
2018-04-12T11:35:55.242Z,50.40
2018-04-12T11:40:57.313Z,48.93
2018-04-12T11:45:58.618Z,49.57
2018-04-12T11:50:59.969Z,48.10
2018-04-12T11:56:01.275Z,47.90
2018-04-12T12:01:02.618Z,50.80
2018-04-12T12:06:04.691Z,49.23
2018-04-12T12:11:06.042Z,48.20
2018-04-12T12:16:07.363Z,48.07
2018-04-12T12:21:08.681Z,46.77
2018-04-12T12:26:10.758Z,46.13
2018-04-12T12:31:12.097Z,44.67
2018-04-12T12:36:13.420Z,41.40
2018-04-12T12:41:14.738Z,46.03
2018-04-12T12:46:16.066Z,43.10
2018-04-12T12:51:17.391Z,46.50
2018-04-12T12:56:18.710Z,42.47
2018-04-12T13:01:20.033Z,44.90
2018-04-12T13:06:21.431Z,44.60
2018-04-12T13:11:22.739Z,56.83
2018-04-12T13:16:24.054Z,48.37
2018-04-12T13:21:25.361Z,46.30
2018-04-12T13:26:27.446Z,46.70
2018-04-12T13:31:28.782Z,55.30
2018-04-12T13:36:30.109Z,48.20
2018-04-12T13:41:31.434Z,46.93
2018-04-12T13:46:32.738Z,47.00
2018-04-12T13:51:34.831Z,43.53
2018-04-12T13:56:36.240Z,50.83
2018-04-12T14:01:37.661Z,46.00
2018-04-12T14:06:39.109Z,47.33
2018-04-12T14:11:41.196Z,38.47
2018-04-12T14:16:43.630Z,36.97
2018-04-12T14:21:44.944Z,39.43
2018-04-12T14:26:46.275Z,42.53
2018-04-12T14:31:47.602Z,42.40
2018-04-12T14:36:49.674Z,38.07
2018-04-12T14:41:51.028Z,35.60
2018-04-12T14:46:52.345Z,42.10
2018-04-12T14:51:53.707Z,39.17
2018-04-12T14:56:55.030Z,35.93
2018-04-12T15:01:56.355Z,39.50
2018-04-12T15:06:58.028Z,38.97
2018-04-12T15:11:59.362Z,36.67
2018-04-12T15:17:00.783Z,36.07
2018-04-12T15:22:02.289Z,41.43
2018-04-12T15:27:03.619Z,38.90
2018-04-12T15:32:05.758Z,34.33
2018-04-12T15:37:07.776Z,35.73
2018-04-12T15:42:10.024Z,33.80
2018-04-12T15:47:11.339Z,31.23
2018-04-12T15:52:12.747Z,32.37
2018-04-12T15:57:14.073Z,33.30
2018-04-12T16:02:15.402Z,28.33
2018-04-12T16:07:17.462Z,31.87
2018-04-12T16:12:18.770Z,32.83
2018-04-12T16:17:20.190Z,27.10
2018-04-12T16:39:06.640Z,30.23
2018-04-12T16:44:08.031Z,24.23
2018-04-12T16:49:09.353Z,26.53
2018-04-12T16:54:10.667Z,25.20
2018-04-12T16:59:11.981Z,23.90
2018-04-12T17:04:14.117Z,23.17
2018-04-12T17:09:15.448Z,20.70
2018-04-12T17:14:16.820Z,20.60
2018-04-12T17:19:19.012Z,20.20
2018-04-12T17:24:20.413Z,19.90
2018-04-12T17:29:21.843Z,19.73
2018-04-12T17:34:23.903Z,19.33
2018-04-12T17:39:25.249Z,22.83
2018-04-12T17:44:27.329Z,21.70
2018-04-12T17:49:28.691Z,19.70
2018-04-12T17:54:30.078Z,17.33
2018-04-12T17:59:33.144Z,22.90
2018-04-12T18:04:34.982Z,16.60
2018-04-12T18:09:37.085Z,15.53
2018-04-12T18:14:39.362Z,16.77
2018-04-12T18:19:40.738Z,16.50
2018-04-12T18:24:42.126Z,19.20
2018-04-12T18:29:43.496Z,16.27
2018-04-12T18:34:44.870Z,19.53
2018-04-12T18:39:46.952Z,19.33
2018-04-12T18:44:48.274Z,19.23
2018-04-12T18:49:49.882Z,17.73
2018-04-12T18:54:51.310Z,22.83
2018-04-12T18:59:52.642Z,19.37
2018-04-12T19:04:54.862Z,28.93
2018-04-12T19:09:56.154Z,20.47
2018-04-12T19:14:58.283Z,30.30
2018-04-12T19:19:59.620Z,23.50
2018-04-12T19:25:01.031Z,27.50
2018-04-12T19:30:03.128Z,23.13
2018-04-12T19:35:04.483Z,31.57
2018-04-12T19:40:05.806Z,23.87
2018-04-12T19:45:07.908Z,26.23
2018-04-12T19:50:10.007Z,28.10
2018-04-12T19:55:12.243Z,26.30
2018-04-12T20:00:14.319Z,27.87
2018-04-12T20:05:15.686Z,32.73
2018-04-12T20:10:17.006Z,33.17
2018-04-12T20:15:18.305Z,40.43
2018-04-12T20:20:20.375Z,31.03
2018-04-12T20:25:21.710Z,34.90
2018-04-12T20:30:23.761Z,32.07
2018-04-12T20:35:25.071Z,33.43
2018-04-12T20:40:26.428Z,35.00
2018-04-12T20:45:27.774Z,38.00
2018-04-12T20:50:29.859Z,33.40
2018-04-12T20:55:31.190Z,64.53
2018-04-12T21:00:33.238Z,40.20
2018-04-12T21:05:34.569Z,36.87
2018-04-12T21:10:36.643Z,36.93
2018-04-12T21:15:37.994Z,33.30
2018-04-12T21:20:39.323Z,32.90
2018-04-12T21:25:40.638Z,32.83
2018-04-12T21:30:41.973Z,24.63
2018-04-12T21:35:43.277Z,28.90
2018-04-12T21:40:44.598Z,30.80
2018-04-12T21:45:45.926Z,27.00
2018-04-12T21:50:47.266Z,26.97
2018-04-12T21:55:48.605Z,25.57
2018-04-12T22:00:49.946Z,24.80
2018-04-12T22:05:51.274Z,24.10
2018-04-12T22:10:53.338Z,24.63
2018-04-12T22:15:54.670Z,22.03
2018-04-12T22:20:55.981Z,28.33
2018-04-12T22:25:57.320Z,24.47
2018-04-12T22:30:58.642Z,18.77
2018-04-12T22:35:59.971Z,19.17
2018-04-12T22:41:01.291Z,23.63
2018-04-12T22:46:02.634Z,24.53
2018-04-12T22:51:03.998Z,23.03
2018-04-12T22:56:06.056Z,20.23
2018-04-12T23:01:07.389Z,22.70
2018-04-12T23:06:08.723Z,25.23
2018-04-12T23:11:10.048Z,22.10
2018-04-12T23:16:11.365Z,14.67
2018-04-12T23:21:12.693Z,26.90
2018-04-12T23:26:14.006Z,19.67
2018-04-12T23:31:15.320Z,18.80
2018-04-12T23:36:17.379Z,17.03
2018-04-12T23:41:18.699Z,19.00
2018-04-12T23:46:20.022Z,23.27
2018-04-12T23:51:21.355Z,27.63
2018-04-12T23:56:22.674Z,23.27
